Time;durP1;ratioP1;P1;durP2;ratioP2;P2;SDS_P1;SDS_P2;PMS_P1;PMS_P2;Temp;Humidity;BMP_temperature;BMP_pressure;BME280_temperature;BME280_humidity;BME280_pressure;Samples;Min_cycle;Max_cycle;Signal;HPM_P1;HPM_P2
2022/10/09 00:02:01;;;;;;;12.63;10.93;;;;;;;12.70;100.00;97173.44;5031254;28;101820;-61
2022/10/09 00:04:28;;;;;;;13.30;12.00;;;;;;;12.69;100.00;97171.81;5029988;28;105014;-61
2022/10/09 00:06:54;;;;;;;12.57;11.37;;;;;;;12.67;100.00;97171.25;5031006;28;102544;-61
2022/10/09 00:09:22;;;;;;;12.30;11.10;;;;;;;12.60;100.00;97173.28;5031491;27;101776;-61
2022/10/09 00:11:49;;;;;;;13.07;11.93;;;;;;;12.50;100.00;97173.94;5034223;28;102868;-61
2022/10/09 00:14:15;;;;;;;12.53;11.33;;;;;;;12.44;100.00;97169.56;5031478;28;101802;-61
2022/10/09 00:16:42;;;;;;;12.70;11.40;;;;;;;12.45;100.00;97165.88;5029979;28;105616;-61
2022/10/09 00:19:11;;;;;;;12.67;11.47;;;;;;;12.48;100.00;97167.25;5030762;28;102615;-61
2022/10/09 00:21:37;;;;;;;12.13;11.07;;;;;;;12.44;100.00;97166.88;5031085;27;101825;-61
2022/10/09 00:24:05;;;;;;;12.00;10.90;;;;;;;12.43;100.00;97165.28;5029899;28;105310;-61
2022/10/09 00:26:33;;;;;;;13.53;11.07;;;;;;;12.44;100.00;97168.75;5029033;28;105792;-61
2022/10/09 00:29:00;;;;;;;12.93;11.63;;;;;;;12.40;100.00;97167.63;5029767;28;101790;-61
2022/10/09 00:31:27;;;;;;;13.27;11.97;;;;;;;12.39;100.00;97166.84;5034116;28;102305;-61
2022/10/09 00:33:55;;;;;;;12.13;10.93;;;;;;;12.42;100.00;97165.53;5029278;28;101932;-61
2022/10/09 00:36:24;;;;;;;14.30;12.80;;;;;;;12.44;100.00;97169.56;5031168;28;102311;-61
2022/10/09 00:38:53;;;;;;;16.57;14.63;;;;;;;12.45;100.00;97168.53;5029187;28;105392;-61
2022/10/09 00:41:23;;;;;;;14.83;13.33;;;;;;;12.43;100.00;97172.50;5030940;28;101908;-61
2022/10/09 00:43:52;;;;;;;13.40;12.10;;;;;;;12.38;100.00;97164.41;5029260;28;106835;-61
2022/10/09 00:46:33;;;;;;;13.70;12.30;;;;;;;12.39;100.00;97161.50;5030142;27;104249;-61
2022/10/09 00:49:06;;;;;;;13.83;12.43;;;;;;;12.38;100.00;97164.41;5029274;28;101896;-61
2022/10/09 00:51:35;;;;;;;13.93;12.63;;;;;;;12.35;100.00;97157.69;5030712;27;102918;-61
2022/10/09 00:54:05;;;;;;;13.70;12.40;;;;;;;12.32;100.00;97152.81;5033473;28;102566;-61
2022/10/09 00:56:32;;;;;;;13.50;12.23;;;;;;;12.25;100.00;97151.38;5030853;27;102244;-61
2022/10/09 00:58:59;;;;;;;15.00;13.60;;;;;;;12.25;100.00;97151.38;5030615;28;102557;-61
2022/10/09 01:01:26;;;;;;;14.20;12.90;;;;;;;12.23;100.00;97145.47;5030630;28;101932;-61
2022/10/09 01:03:53;;;;;;;15.23;13.73;;;;;;;12.20;100.00;97144.09;5030566;28;102686;-61
2022/10/09 01:06:29;;;;;;;14.40;13.00;;;;;;;12.18;100.00;97137.41;5030015;28;103120;-61
2022/10/09 01:09:04;;;;;;;17.20;15.30;;;;;;;12.09;100.00;97138.84;5030905;28;101806;-61
2022/10/09 01:11:59;;;;;;;16.10;14.60;;;;;;;12.01;100.00;97136.56;5030677;28;102346;-61
2022/10/09 01:14:29;;;;;;;14.90;13.43;;;;;;;11.92;100.00;97136.16;5028968;27;104358;-61
2022/10/09 01:17:04;;;;;;;16.67;15.10;;;;;;;11.86;100.00;97130.97;5033595;28;101932;-61
2022/10/09 01:19:48;;;;;;;17.70;15.87;;;;;;;11.75;100.00;97131.84;5030103;28;102641;-61
2022/10/09 01:22:28;;;;;;;16.60;14.90;;;;;;;11.70;100.00;97123.75;5030274;27;102096;-61
2022/10/09 01:25:05;;;;;;;16.57;15.00;;;;;;;11.68;100.00;97132.00;5030448;27;102592;-61
2022/10/09 01:27:36;;;;;;;14.20;12.47;;;;;;;11.54;100.00;97121.81;5029857;28;102618;-61
2022/10/09 01:30:07;;;;;;;11.57;10.43;;;;;;;11.59;100.00;97132.63;5030363;28;101700;-61
2022/10/09 01:32:38;;;;;;;10.80;9.53;;;;;;;11.49;100.00;97116.41;5028889;28;105103;-61
2022/10/09 01:35:06;;;;;;;10.57;9.50;;;;;;;11.44;100.00;97119.78;5030693;28;102680;-61
2022/10/09 01:37:35;;;;;;;12.07;9.07;;;;;;;11.53;100.00;97113.03;5029588;28;101982;-61
2022/10/09 01:40:03;;;;;;;9.20;8.10;;;;;;;11.47;100.00;97115.84;5033977;27;102374;-61
2022/10/09 01:42:33;;;;;;;9.93;7.93;;;;;;;11.51;100.00;97112.47;5030844;28;101895;-61
2022/10/09 01:45:00;;;;;;;11.87;9.10;;;;;;;11.52;100.00;97110.63;5030940;27;103412;-61
2022/10/09 01:47:28;;;;;;;8.73;7.73;;;;;;;11.57;100.00;97110.72;5030081;28;102463;-61
2022/10/09 01:50:02;;;;;;;9.93;8.30;;;;;;;11.54;100.00;97103.19;5031064;28;101874;-61
2022/10/09 01:52:39;;;;;;;9.43;7.30;;;;;;;11.52;100.00;97105.28;5028889;28;104023;-61
2022/10/09 01:55:20;;;;;;;7.53;6.83;;;;;;;11.43;100.00;97101.38;5030390;28;102573;-61
2022/10/09 01:57:54;;;;;;;7.77;6.50;;;;;;;11.35;100.00;97096.44;5030546;27;101678;-61
2022/10/09 02:00:22;;;;;;;7.43;6.50;;;;;;;11.34;100.00;97089.50;5029290;28;103474;-61
2022/10/09 02:02:51;;;;;;;8.57;6.50;;;;;;;11.20;100.00;97083.66;5033480;28;102862;-61
2022/10/09 02:05:22;;;;;;;7.50;6.10;;;;;;;11.13;100.00;97076.84;5030496;28;102500;-61
2022/10/09 02:07:49;;;;;;;8.07;5.83;;;;;;;11.15;100.00;97082.75;5028311;27;103736;-61
2022/10/09 02:10:19;;;;;;;12.00;5.97;;;;;;;11.09;100.00;97081.03;5029346;28;101859;-61
2022/10/09 02:12:51;;;;;;;6.83;5.53;;;;;;;11.08;100.00;97079.41;5030630;28;102906;-61
2022/10/09 02:15:20;;;;;;;8.10;5.50;;;;;;;11.04;100.00;97067.63;5030134;28;103126;-61
2022/10/09 02:17:49;;;;;;;7.90;5.43;;;;;;;11.02;100.00;97073.16;5030438;28;101817;-61
2022/10/09 02:20:25;;;;;;;10.57;5.47;;;;;;;11.04;100.00;97070.28;5029256;28;105141;-61
2022/10/09 02:22:55;;;;;;;7.10;4.83;;;;;;;10.98;100.00;97072.03;5029929;28;102543;-61
2022/10/09 02:25:22;;;;;;;5.00;4.50;;;;;;;11.02;100.00;97072.38;5033755;28;101683;-61
2022/10/09 02:27:51;;;;;;;8.70;4.67;;;;;;;10.97;100.00;97065.09;5028466;28;105784;-61
2022/10/09 02:30:20;;;;;;;7.33;4.40;;;;;;;10.99;100.00;97064.84;5029970;28;101826;-61
2022/10/09 02:32:52;;;;;;;6.93;4.60;;;;;;;10.99;100.00;97054.22;5030290;28;102347;-61
2022/10/09 02:35:20;;;;;;;5.93;4.70;;;;;;;10.92;100.00;97054.38;5028457;28;105468;-61
2022/10/09 02:37:48;;;;;;;6.20;4.97;;;;;;;10.98;100.00;97057.91;5030463;28;101845;-61
2022/10/09 02:40:15;;;;;;;7.40;4.70;;;;;;;11.00;100.00;97063.81;5030268;28;102596;-61
2022/10/09 02:42:42;;;;;;;5.30;4.37;;;;;;;11.02;100.00;97065.19;5027953;28;105882;-61
2022/10/09 02:45:12;;;;;;;7.30;4.73;;;;;;;11.03;100.00;97052.69;5033651;28;102296;-61
2022/10/09 02:47:39;;;;;;;7.27;4.40;;;;;;;10.98;100.00;97049.94;5029313;28;102658;-61
2022/10/09 02:50:08;;;;;;;6.73;4.50;;;;;;;10.89;100.00;97046.03;5028746;28;101814;-61
2022/10/09 02:52:34;;;;;;;7.23;4.37;;;;;;;10.78;100.00;97038.88;5029238;28;104437;-61
2022/10/09 02:55:01;;;;;;;6.80;4.27;;;;;;;10.77;100.00;97042.59;5029267;28;103219;-61
2022/10/09 02:57:28;;;;;;;6.03;4.33;;;;;;;10.79;100.00;97040.53;5030061;27;101872;-61
2022/10/09 02:59:55;;;;;;;7.13;4.57;;;;;;;10.75;100.00;97042.03;5030244;27;102817;-61
2022/10/09 03:02:25;;;;;;;7.63;4.43;;;;;;;10.76;100.00;97040.97;5029410;28;102647;-61
2022/10/09 03:04:52;;;;;;;6.97;4.63;;;;;;;10.77;100.00;97037.25;5028506;28;101993;-61
2022/10/09 03:07:19;;;;;;;5.97;4.13;;;;;;;10.80;100.00;97036.81;5031254;28;103560;-61
2022/10/09 03:09:45;;;;;;;5.50;4.20;;;;;;;10.85;100.00;97036.91;5029895;27;101878;-61
2022/10/09 03:12:14;;;;;;;7.03;3.80;;;;;;;10.88;100.00;97028.44;5029771;28;102391;-61
2022/10/09 03:14:42;;;;;;;5.93;4.03;;;;;;;10.92;100.00;97034.91;5029354;28;103231;-61
2022/10/09 03:17:09;;;;;;;5.03;4.07;;;;;;;10.80;100.00;97029.63;5028554;28;101982;-61
2022/10/09 03:19:37;;;;;;;6.13;4.00;;;;;;;10.75;100.00;97034.03;5030045;27;102530;-61
2022/10/09 03:22:04;;;;;;;5.20;4.23;;;;;;;10.70;100.00;97028.63;5032253;28;102672;-61
2022/10/09 03:24:31;;;;;;;6.07;4.63;;;;;;;10.68;100.00;97033.38;5031947;28;101774;-61
2022/10/09 03:26:58;;;;;;;8.67;4.40;;;;;;;10.53;100.00;97033.84;5031831;28;103482;-61
2022/10/09 03:29:25;;;;;;;6.27;4.33;;;;;;;10.65;100.00;97033.84;5035849;28;103089;-61
2022/10/09 03:31:52;;;;;;;7.03;3.93;;;;;;;10.58;100.00;97030.50;5033085;28;102414;-61
2022/10/09 03:34:19;;;;;;;10.20;4.30;;;;;;;10.51;100.00;97033.28;5032575;27;101944;-61
2022/10/09 03:36:48;;;;;;;8.60;4.97;;;;;;;10.53;100.00;97036.50;5031431;28;101899;-61
2022/10/09 03:39:15;;;;;;;6.20;4.30;;;;;;;10.63;100.00;97041.25;5033364;28;103071;-61
2022/10/09 03:41:41;;;;;;;8.10;4.50;;;;;;;10.60;100.00;97036.38;5032316;27;103311;-61
2022/10/09 03:44:08;;;;;;;7.17;4.83;;;;;;;10.56;100.00;97030.72;5033049;28;101804;-61
2022/10/09 03:46:35;;;;;;;6.80;5.00;;;;;;;10.46;100.00;97029.72;5031341;28;105243;-61
2022/10/09 03:49:02;;;;;;;6.33;4.73;;;;;;;10.44;100.00;97031.78;5030670;28;105286;-61
2022/10/09 03:51:29;;;;;;;6.53;4.60;;;;;;;10.38;100.00;97033.53;5034668;28;102006;-61
2022/10/09 03:53:57;;;;;;;7.90;4.70;;;;;;;10.27;100.00;97036.19;5030591;28;102806;-61
2022/10/09 03:56:24;;;;;;;6.10;4.77;;;;;;;10.22;100.00;97030.78;5031306;28;101940;-61
2022/10/09 03:58:52;;;;;;;8.77;4.87;;;;;;;10.29;100.00;97029.63;5031379;28;105128;-61
2022/10/09 04:01:19;;;;;;;6.00;4.50;;;;;;;10.20;100.00;97033.66;5031823;28;102665;-61
2022/10/09 04:03:46;;;;;;;8.80;4.93;;;;;;;10.12;100.00;97028.69;5031345;28;102048;-61
2022/10/09 04:06:15;;;;;;;10.60;5.23;;;;;;;10.16;100.00;97023.72;5031338;28;105630;-61
2022/10/09 04:08:42;;;;;;;7.90;5.07;;;;;;;10.08;100.00;97021.44;5030716;28;105575;-61
2022/10/09 04:11:11;;;;;;;7.47;4.80;;;;;;;9.97;100.00;97027.53;5030861;28;101878;-61
2022/10/09 04:13:37;;;;;;;6.47;5.23;;;;;;;9.91;100.00;97021.28;5034055;28;105829;-61
2022/10/09 04:16:05;;;;;;;6.20;4.73;;;;;;;9.81;100.00;97020.25;5031346;28;102317;-61
2022/10/09 04:18:32;;;;;;;5.27;4.60;;;;;;;9.88;100.00;97026.25;5031202;28;105261;-61
2022/10/09 04:20:59;;;;;;;7.10;4.53;;;;;;;9.90;100.00;97030.28;5030281;28;105496;-61
2022/10/09 04:23:28;;;;;;;7.73;5.20;;;;;;;9.87;100.00;97029.94;5030597;28;101897;-61
2022/10/09 04:25:57;;;;;;;10.47;5.83;;;;;;;9.84;100.00;97033.88;5030919;28;105638;-61
2022/10/09 04:28:26;;;;;;;9.23;5.30;;;;;;;9.81;100.00;97020.25;5031932;28;102325;-61
2022/10/09 04:30:53;;;;;;;6.70;5.40;;;;;;;9.77;100.00;97021.72;5030469;27;101957;-61
2022/10/09 04:33:21;;;;;;;7.23;5.60;;;;;;;9.76;100.00;97020.13;5030531;28;104665;-61
2022/10/09 04:35:52;;;;;;;6.30;5.03;;;;;;;9.72;100.00;97018.94;5033456;28;101927;-61
2022/10/09 04:38:20;;;;;;;7.47;5.10;;;;;;;9.62;100.00;97018.69;5030771;28;105681;-61
2022/10/09 04:40:55;;;;;;;8.17;5.27;;;;;;;9.45;100.00;97020.41;5030050;28;105761;-61
2022/10/09 04:43:22;;;;;;;7.90;5.57;;;;;;;9.36;100.00;97032.38;5030530;28;101856;-61
2022/10/09 04:45:51;;;;;;;10.43;5.73;;;;;;;9.36;100.00;97022.56;5030480;28;105223;-61
2022/10/09 04:48:18;;;;;;;7.73;5.50;;;;;;;9.37;100.00;97018.09;5030025;28;105270;-61
2022/10/09 04:50:45;;;;;;;8.93;6.30;;;;;;;9.40;100.00;97021.09;5030677;28;101889;-61
2022/10/09 04:53:12;;;;;;;9.70;6.13;;;;;;;9.43;100.00;97017.19;5030337;28;103784;-61
2022/10/09 04:55:40;;;;;;;9.17;6.37;;;;;;;9.35;100.00;97009.53;5033227;28;105265;-61
2022/10/09 04:58:07;;;;;;;10.63;5.60;;;;;;;9.41;100.00;97014.75;5030476;28;106069;-61
2022/10/09 05:00:35;;;;;;;7.67;5.53;;;;;;;9.43;100.00;97011.88;5029535;28;105407;-61
2022/10/09 05:03:04;;;;;;;7.83;5.70;;;;;;;9.43;100.00;97009.22;5031687;28;101880;-61
2022/10/09 05:05:32;;;;;;;10.33;6.23;;;;;;;9.38;100.00;97015.19;5031562;27;104389;-61
2022/10/09 05:07:59;;;;;;;7.03;5.43;;;;;;;9.42;100.00;97012.88;5029429;28;105482;-61
2022/10/09 05:10:26;;;;;;;8.10;5.83;;;;;;;9.42;100.00;97010.22;5030345;28;101882;-61
2022/10/09 05:12:52;;;;;;;6.07;5.40;;;;;;;9.41;100.00;97014.75;5030277;28;105231;-61
2022/10/09 05:15:19;;;;;;;7.03;5.43;;;;;;;9.37;100.00;97008.25;5030901;28;103142;-61
2022/10/09 05:17:46;;;;;;;6.77;5.53;;;;;;;9.38;100.00;97011.75;5035052;28;101835;-61
2022/10/09 05:20:15;;;;;;;7.33;5.70;;;;;;;9.39;100.00;97005.38;5029266;28;105591;-61
2022/10/09 05:22:44;;;;;;;6.53;5.47;;;;;;;9.28;100.00;97008.81;5031244;27;101975;-61
2022/10/09 05:25:11;;;;;;;8.17;5.90;;;;;;;9.26;100.00;97022.31;5031479;28;102846;-61
2022/10/09 05:27:39;;;;;;;8.23;6.30;;;;;;;9.24;100.00;97021.75;5031172;28;102766;-61
2022/10/09 05:30:07;;;;;;;8.13;5.90;;;;;;;9.24;100.00;97018.25;5030995;27;101787;-61
2022/10/09 05:32:35;;;;;;;9.17;5.83;;;;;;;9.22;100.00;97023.00;5030123;28;105829;-61
2022/10/09 05:35:03;;;;;;;7.73;6.10;;;;;;;9.14;100.00;97024.13;5029600;28;105748;-61
2022/10/09 05:37:36;;;;;;;6.20;5.60;;;;;;;9.16;100.00;97018.59;5030046;28;101804;-61
2022/10/09 05:40:03;;;;;;;6.50;5.60;;;;;;;9.17;100.00;97018.34;5034592;28;102354;-61
2022/10/09 05:42:30;;;;;;;6.67;5.77;;;;;;;9.26;100.00;97022.31;5029140;28;101931;-61
2022/10/09 05:44:56;;;;;;;7.27;5.60;;;;;;;9.33;100.00;97016.91;5029510;28;105142;-61
2022/10/09 05:47:25;;;;;;;8.43;6.20;;;;;;;9.35;100.00;97020.16;5029062;28;104558;-61
2022/10/09 05:49:51;;;;;;;9.50;6.17;;;;;;;9.41;100.00;97012.09;5028285;28;101860;-61
2022/10/09 05:52:18;;;;;;;8.60;6.57;;;;;;;9.46;100.00;97009.56;5029179;28;104909;-61
2022/10/09 05:54:47;;;;;;;8.13;6.43;;;;;;;9.50;100.00;97008.06;5029012;28;106425;-61
2022/10/09 05:57:52;;;;;;;8.03;6.20;;;;;;;9.54;100.00;97009.22;5029695;28;101929;-61
2022/10/09 06:00:19;;;;;;;7.00;5.90;;;;;;;9.50;100.00;97001.94;5029809;28;103773;-61
2022/10/09 06:02:46;;;;;;;8.30;6.53;;;;;;;9.47;100.00;97005.88;5032222;28;105930;-61
2022/10/09 06:05:14;;;;;;;11.00;6.57;;;;;;;9.54;100.00;97003.91;5029725;28;104726;-61
2022/10/09 06:07:41;;;;;;;7.97;6.23;;;;;;;9.64;100.00;97009.47;5028942;28;105967;-61
2022/10/09 06:10:11;;;;;;;12.27;7.00;;;;;;;9.73;100.00;97012.59;5029645;28;101946;-61
2022/10/09 06:12:38;;;;;;;14.77;6.60;;;;;;;9.80;100.00;97010.63;5029367;28;105580;-61
2022/10/09 06:15:06;;;;;;;8.40;6.93;;;;;;;9.84;100.00;97014.44;5029011;28;105301;-61
2022/10/09 06:17:44;;;;;;;9.93;6.60;;;;;;;9.84;100.00;97015.28;5029560;28;101859;-61
2022/10/09 06:20:11;;;;;;;8.57;6.10;;;;;;;9.94;100.00;97004.06;5029583;28;104694;-61
2022/10/09 06:22:38;;;;;;;8.70;6.67;;;;;;;9.95;100.00;97006.50;5028461;28;105533;-61
2022/10/09 06:25:07;;;;;;;9.93;6.47;;;;;;;9.98;100.00;97007.88;5032162;28;102003;-61
2022/10/09 06:27:58;;;;;;;12.70;7.30;;;;;;;10.09;100.00;97015.06;5028224;28;105646;-61
2022/10/09 06:30:24;;;;;;;10.77;7.70;;;;;;;10.13;100.00;97013.53;5027834;28;103546;-61
2022/10/09 06:32:51;;;;;;;7.93;6.27;;;;;;;10.02;100.00;97001.03;5028777;28;104017;-61
2022/10/09 06:35:18;;;;;;;6.77;6.03;;;;;;;10.15;100.00;97008.81;5029888;28;102761;-61
2022/10/09 06:38:02;;;;;;;7.03;6.33;;;;;;;10.36;100.00;97016.22;5029133;28;101885;-61
2022/10/09 06:40:29;;;;;;;9.20;6.37;;;;;;;10.33;100.00;97009.50;5028966;28;104735;-61
2022/10/09 06:42:59;;;;;;;9.90;6.57;;;;;;;10.36;100.00;97016.22;5029511;28;103170;-61
2022/10/09 06:45:25;;;;;;;8.83;7.00;;;;;;;10.47;100.00;97021.50;5032524;28;101960;-61
2022/10/09 06:48:08;;;;;;;7.33;6.00;;;;;;;10.54;100.00;97026.69;5028194;28;105194;-61
2022/10/09 06:51:13;;;;;;;8.43;6.33;;;;;;;10.48;100.00;97022.31;5028866;28;101895;-61
2022/10/09 06:53:44;;;;;;;8.90;6.40;;;;;;;10.53;100.00;97020.53;5028712;28;104221;-61
2022/10/09 06:56:16;;;;;;;9.57;6.80;;;;;;;10.52;100.00;97023.47;5034993;28;105325;-61
2022/10/09 06:58:45;;;;;;;13.83;7.93;;;;;;;10.41;100.00;97026.94;5028710;28;102277;-61
2022/10/09 07:01:15;;;;;;;10.87;7.20;;;;;;;10.43;100.00;97033.66;5034256;28;105273;-61
2022/10/09 07:03:44;;;;;;;14.53;8.20;;;;;;;10.49;100.00;97035.38;5034449;28;104750;-61
2022/10/09 07:06:13;;;;;;;10.37;7.97;;;;;;;10.50;100.00;97031.66;5034758;28;101961;-61
2022/10/09 07:08:41;;;;;;;14.20;8.20;;;;;;;10.64;100.00;97022.38;5037521;28;106013;-61
2022/10/09 07:11:09;;;;;;;10.57;7.90;;;;;;;10.79;100.00;97019.25;5035316;28;102078;-61
2022/10/09 07:13:37;;;;;;;10.57;8.30;;;;;;;10.84;100.00;97027.31;5036282;28;102480;-61
2022/10/09 07:16:06;;;;;;;12.47;8.47;;;;;;;10.88;100.00;97028.44;5034640;28;104293;-61
2022/10/09 07:18:34;;;;;;;10.37;9.00;;;;;;;10.88;100.00;97034.59;5034781;28;101892;-61
2022/10/09 07:21:02;;;;;;;12.57;8.93;;;;;;;10.90;100.00;97034.34;5034697;28;104891;-61
2022/10/09 07:23:29;;;;;;;11.70;10.33;;;;;;;10.85;100.00;97029.72;5033666;28;105855;-61
2022/10/09 07:25:56;;;;;;;14.53;11.43;;;;;;;10.85;100.00;97024.41;5033413;28;102293;-61
2022/10/09 07:28:23;;;;;;;15.10;11.53;;;;;;;10.92;100.00;97024.28;5035672;28;102469;-61
2022/10/09 07:30:51;;;;;;;13.73;11.77;;;;;;;10.99;100.00;97030.25;5037094;28;105144;-61
2022/10/09 07:33:19;;;;;;;16.07;12.37;;;;;;;11.06;100.00;97031.72;5033486;28;105619;-61
2022/10/09 07:35:53;;;;;;;15.67;12.57;;;;;;;11.07;100.00;97037.88;5032853;28;105049;-61
2022/10/09 07:38:21;;;;;;;19.17;12.47;;;;;;;11.13;100.00;97047.56;5033788;28;101919;-61
2022/10/09 07:40:48;;;;;;;17.20;12.87;;;;;;;11.15;100.00;97035.63;5033455;28;103461;-61
2022/10/09 07:43:15;;;;;;;15.17;13.10;;;;;;;11.09;100.00;97039.25;5034707;28;102612;-61
2022/10/09 07:45:42;;;;;;;15.50;12.73;;;;;;;11.10;100.00;97038.22;5033572;28;101824;-61
2022/10/09 07:48:10;;;;;;;15.23;12.33;;;;;;;11.23;100.00;97043.22;5033752;28;104497;-61
2022/10/09 07:50:43;;;;;;;16.80;13.53;;;;;;;11.39;100.00;97031.03;5032566;28;105384;-61
2022/10/09 07:53:11;;;;;;;18.57;13.73;;;;;;;11.47;100.00;97025.28;5032621;28;102443;-61
2022/10/09 07:55:45;;;;;;;16.80;13.10;;;;;;;11.60;100.00;97027.66;5032705;28;104392;-61
2022/10/09 07:58:12;;;;;;;16.47;13.17;;;;;;;11.64;100.00;97020.81;5032633;28;102039;-61
2022/10/09 08:00:39;;;;;;;16.67;13.33;;;;;;;11.65;100.00;97023.25;5033228;28;104411;-61
2022/10/09 08:03:06;;;;;;;16.90;13.37;;;;;;;11.69;100.00;97020.91;5032933;28;105104;-61
2022/10/09 08:05:34;;;;;;;14.73;13.10;;;;;;;11.70;100.00;97022.50;5032748;27;102010;-61
2022/10/09 08:08:03;;;;;;;16.57;13.70;;;;;;;11.79;100.00;97016.56;5030020;28;103615;-61
2022/10/09 08:10:30;;;;;;;15.33;13.07;;;;;;;11.79;100.00;97011.22;5029314;28;105467;-61
2022/10/09 08:12:58;;;;;;;17.03;13.43;;;;;;;11.82;100.00;97013.41;5030180;28;102074;-61
2022/10/09 08:15:25;;;;;;;14.57;12.90;;;;;;;11.81;100.00;97013.63;5034359;27;102819;-61
2022/10/09 08:17:52;;;;;;;15.10;12.87;;;;;;;11.84;100.00;97011.28;5029799;28;101957;-61
2022/10/09 08:20:19;;;;;;;14.27;12.37;;;;;;;11.84;100.00;97013.16;5030947;28;102307;-61
2022/10/09 08:22:46;;;;;;;13.27;11.97;;;;;;;11.87;100.00;97012.66;5029234;28;105967;-61
2022/10/09 08:25:15;;;;;;;15.00;12.23;;;;;;;11.93;100.00;97011.72;5031383;28;101818;-61
2022/10/09 08:27:42;;;;;;;12.73;11.17;;;;;;;11.95;100.00;97014.94;5063593;27;105193;-61
2022/10/09 08:30:09;;;;;;;14.57;11.60;;;;;;;12.01;100.00;97016.63;5028967;28;105321;-61
2022/10/09 08:32:36;;;;;;;15.13;11.60;;;;;;;12.04;100.00;97014.28;5029504;28;101911;-61
2022/10/09 08:35:03;;;;;;;12.67;11.00;;;;;;;12.05;100.00;97013.22;5031195;28;102949;-61
2022/10/09 08:37:29;;;;;;;11.87;10.67;;;;;;;12.14;100.00;97016.28;5032571;28;105617;-61
2022/10/09 08:39:57;;;;;;;11.40;10.20;;;;;;;12.15;100.00;97010.69;5029332;28;105219;-61
2022/10/09 08:42:32;;;;;;;12.43;10.30;;;;;;;12.14;100.00;97008.28;5029111;28;105170;-61
2022/10/09 08:44:59;;;;;;;11.77;10.43;;;;;;;12.17;100.00;97010.47;5029632;28;101902;-61
2022/10/09 08:47:34;;;;;;;11.87;10.67;;;;;;;12.11;100.00;97009.56;5029583;28;105176;-61
2022/10/09 08:50:08;;;;;;;13.03;11.03;;;;;;;12.13;100.00;97014.66;5029083;28;106002;-61
2022/10/09 08:52:42;;;;;;;12.83;10.73;;;;;;;12.05;100.00;97009.75;5029387;28;101921;-61
2022/10/09 08:55:18;;;;;;;12.03;10.37;;;;;;;12.09;100.00;97010.88;5030832;28;102320;-61
2022/10/09 08:57:50;;;;;;;14.07;11.10;;;;;;;12.18;100.00;97006.75;5032089;28;105074;-61
2022/10/09 09:00:20;;;;;;;13.03;10.53;;;;;;;12.26;100.00;97011.66;5031031;27;102819;-61
2022/10/09 09:03:01;;;;;;;11.97;10.87;;;;;;;12.30;100.00;97004.78;5028572;28;105726;-61
2022/10/09 09:05:36;;;;;;;12.13;10.93;;;;;;;12.34;100.00;96997.91;5030901;27;102129;-61
2022/10/09 09:08:10;;;;;;;12.30;11.00;;;;;;;12.39;100.00;97000.63;5030945;28;102358;-59
2022/10/09 09:10:42;;;;;;;13.10;11.13;;;;;;;12.40;100.00;97002.25;5030356;28;103155;-59
2022/10/09 09:13:30;;;;;;;12.00;10.80;;;;;;;12.46;100.00;97001.25;5029289;28;101847;-60
2022/10/09 09:16:07;;;;;;;12.10;10.80;;;;;;;12.57;100.00;97003.00;5028870;28;105451;-59
2022/10/09 09:18:41;;;;;;;14.90;12.10;;;;;;;12.66;100.00;96997.00;5028967;27;102563;-59
2022/10/09 09:21:17;;;;;;;12.27;10.97;;;;;;;12.67;100.00;96989.78;5032528;28;101916;-59
2022/10/09 09:23:47;;;;;;;12.77;10.63;;;;;;;12.65;100.00;96989.25;5029004;28;102778;-59
2022/10/09 09:26:19;;;;;;;12.80;11.53;;;;;;;12.74;100.00;96990.41;5030285;28;101693;-59
2022/10/09 09:28:52;;;;;;;11.93;10.73;;;;;;;12.87;100.00;96988.16;5030053;28;102644;-59
2022/10/09 09:31:23;;;;;;;13.87;11.87;;;;;;;12.87;100.00;96979.38;5028529;28;103923;-59
2022/10/09 09:33:55;;;;;;;11.93;10.60;;;;;;;12.98;100.00;96970.44;5030366;27;101832;-59
2022/10/09 09:36:25;;;;;;;13.63;11.23;;;;;;;12.96;100.00;96968.00;5030565;28;102808;-59
2022/10/09 09:38:53;;;;;;;12.70;11.20;;;;;;;13.00;100.00;96970.97;5028091;28;105537;-59
2022/10/09 09:41:20;;;;;;;14.93;11.23;;;;;;;13.11;100.00;96972.69;5030016;27;101852;-59
2022/10/09 09:43:49;;;;;;;14.07;11.00;;;;;;;13.20;100.00;96977.31;5032811;28;102314;-59
2022/10/09 09:46:19;;;;;;;11.90;10.70;;;;;;;13.16;100.00;96976.25;5028474;28;102017;-59
2022/10/09 09:48:48;;;;;;;12.30;11.07;;;;;;;13.26;100.00;96964.84;5028645;28;105138;-59
2022/10/09 09:51:19;;;;;;;13.13;10.53;;;;;;;13.27;100.00;96961.94;5029216;27;102851;-60
2022/10/09 09:53:49;;;;;;;11.90;10.57;;;;;;;13.35;100.00;96966.00;5029760;27;101719;-62
2022/10/09 09:56:17;;;;;;;11.93;9.37;;;;;;;13.37;100.00;96956.69;5028236;28;104116;-59
2022/10/09 09:58:47;;;;;;;11.10;9.77;;;;;;;13.27;100.00;96955.75;5029536;28;102719;-60
2022/10/09 10:01:23;;;;;;;10.53;9.43;;;;;;;13.38;100.00;96960.16;5030200;28;101747;-60
2022/10/09 10:03:52;;;;;;;13.33;8.87;;;;;;;13.49;100.00;96951.16;5026729;28;105166;-60
2022/10/09 10:06:24;;;;;;;9.93;8.93;;;;;;;13.55;100.00;96958.16;5032805;28;104350;-60
2022/10/09 10:09:13;;;;;;;9.63;7.80;;;;;;;13.53;100.00;96953.06;5028395;28;102296;-60
2022/10/09 10:11:46;;;;;;;10.10;8.13;;;;;;;13.59;100.00;96953.91;5028640;28;102607;-60
2022/10/09 10:14:15;;;;;;;9.10;8.30;;;;;;;13.67;100.00;96948.09;5027667;28;101906;-60
2022/10/09 10:16:48;;;;;;;9.80;8.40;;;;;;;13.80;100.00;96939.66;5030545;28;102574;-60
2022/10/09 10:19:22;;;;;;;9.07;8.10;;;;;;;13.98;100.00;96936.53;5030268;28;102682;-60
2022/10/09 10:21:55;;;;;;;8.87;7.97;;;;;;;14.04;100.00;96932.84;5029051;28;101797;-60
2022/10/09 10:24:27;;;;;;;8.70;7.73;;;;;;;14.17;100.00;96933.19;5030550;28;102991;-60
2022/10/09 10:26:58;;;;;;;8.13;7.33;;;;;;;14.13;100.00;96931.28;5028246;28;105811;-60
2022/10/09 10:29:31;;;;;;;8.13;7.40;;;;;;;14.13;100.00;96928.63;5033686;27;101786;-60
2022/10/09 10:32:09;;;;;;;8.43;7.30;;;;;;;14.10;100.00;96934.47;5028349;28;105647;-60
2022/10/09 10:34:41;;;;;;;7.83;6.57;;;;;;;14.02;100.00;96918.94;5030497;28;101910;-60
2022/10/09 10:37:28;;;;;;;7.77;6.97;;;;;;;14.21;100.00;96920.94;5030413;27;102273;-60
2022/10/09 10:40:00;;;;;;;6.97;6.27;;;;;;;14.26;100.00;96917.47;5028322;28;107183;-60
2022/10/09 10:42:36;;;;;;;7.33;6.57;;;;;;;14.14;100.00;96922.19;5030382;28;101808;-60
2022/10/09 10:45:12;;;;;;;7.57;6.40;;;;;;;14.12;100.00;96925.13;5030237;28;102855;-60
2022/10/09 10:47:45;;;;;;;7.27;6.57;;;;;;;14.12;100.00;96916.31;5029550;27;102814;-60
2022/10/09 10:50:14;;;;;;;7.00;6.37;;;;;;;14.13;100.00;96907.22;5028871;28;101980;-60
2022/10/09 10:52:54;;;;;;;8.80;6.30;;;;;;;14.04;100.00;96911.44;5032747;28;102506;-60
2022/10/09 10:55:33;;;;;;;7.07;6.37;;;;;;;14.20;100.00;96910.50;5030385;28;101861;-60
2022/10/09 10:58:14;;;;;;;6.50;5.90;;;;;;;14.13;100.00;96915.25;5028302;28;105660;-60
2022/10/09 11:00:49;;;;;;;7.63;6.70;;;;;;;14.10;100.00;96910.41;5029749;28;102738;-60
2022/10/09 11:03:37;;;;;;;5.83;5.30;;;;;;;14.22;100.00;96900.34;5028613;28;101896;-60
2022/10/09 11:06:12;;;;;;;8.13;5.30;;;;;;;14.42;100.00;96895.88;5030200;28;102913;-60
2022/10/09 11:08:59;;;;;;;5.40;4.90;;;;;;;14.59;100.00;96893.81;5029120;28;102624;-60
2022/10/09 11:11:36;;;;;;;7.80;5.80;;;;;;;14.69;100.00;96887.66;5030115;28;102029;-60
2022/10/09 11:14:15;;;;;;;5.40;4.77;;;;;;;14.85;100.00;96878.59;5031272;28;105857;-60
2022/10/09 11:16:56;;;;;;;6.70;5.00;;;;;;;14.89;100.00;96882.38;5028379;28;101942;-60
2022/10/09 11:19:44;;;;;;;7.60;5.13;;;;;;;14.97;100.00;96871.13;5029731;27;102302;-60
2022/10/09 11:22:25;;;;;;;5.47;4.97;;;;;;;15.06;100.00;96870.34;5027472;28;105922;-60
2022/10/09 11:25:07;;;;;;;7.13;4.47;;;;;;;15.12;100.00;96865.78;5028187;28;102023;-60
2022/10/09 11:27:41;;;;;;;5.87;4.30;;;;;;;14.98;100.00;96862.03;5029731;28;102874;-60